Capo Vado — IPWV — position and weather

sailwx.info

Track history (hours):
 
Tides and Currents Weather Stations Pressure Air Temp Water Temp Dewpoint Dewpoint Depression Visibility Wind Speed Wind Dir Waves Ship Positions

Capo Vado

Last reported at 2017-May-24 09:59 UTC. Time now 2017-May-24 10:08 UTC.
Position N 44°17' E 008°28'.

; draft 4.5 m.

Type: Tug. MMSI: 247228400.

Date/timePositionNaut miles runAvg speedWind from/ knotsBaromVisibWave heightAir tempDewpointWater temp
2017-May-24 09:59N 44°17' E 008°28'1 1.2
2017-May-24 09:30N 44°16' E 008°28'0 0.8
2017-May-24 08:59N 44°16' E 008°28'3 5.8
2017-May-24 08:30N 44°19' E 008°30'1 1.4
2017-May-24 08:01N 44°18' E 008°29'0 0.0
2017-May-24 07:31N 44°18' E 008°29'0 0.0
2017-May-24 06:58N 44°18' E 008°29'0 0.0
2017-May-24 06:28N 44°18' E 008°29'0 0.0
2017-May-24 05:52N 44°18' E 008°29'0 0.0
2017-May-24 05:13N 44°18' E 008°29'0 0.0
2017-May-24 04:52N 44°18' E 008°29'0 0.0
2017-May-24 04:19N 44°18' E 008°29'0 0.0
2017-May-24 03:49N 44°18' E 008°29'0 0.0
2017-May-24 03:25N 44°18' E 008°29'0 0.0
2017-May-24 02:07N 44°18' E 008°29'0 0.0
2017-May-24 01:55N 44°18' E 008°29'0 0.0
2017-May-24 00:13N 44°18' E 008°29'0 0.0
2017-May-24 00:01N 44°18' E 008°29'0 0.0
2017-May-23 23:31N 44°18' E 008°29'0 0.0
2017-May-23 23:01N 44°18' E 008°29'0 1.0
2017-May-23 22:30N 44°19' E 008°30'0 0.7
2017-May-23 21:45N 44°18' E 008°29'0 0.0
2017-May-23 20:45N 44°18' E 008°29'0 0.0
2017-May-23 20:27N 44°18' E 008°29'0 0.0
2017-May-23 19:57N 44°18' E 008°29'0 0.0
2017-May-23 19:15N 44°18' E 008°29'0 0.0
2017-May-23 18:51N 44°18' E 008°29'0 0.0
2017-May-23 18:21N 44°18' E 008°29'0 0.0
2017-May-23 17:57N 44°18' E 008°29'0 0.0
2017-May-23 17:27N 44°18' E 008°29'0 0.0
2017-May-23 16:57N 44°18' E 008°29'0 0.0
2017-May-23 16:27N 44°18' E 008°29'0 0.0
2017-May-23 15:51N 44°18' E 008°29'0 0.0
2017-May-23 15:27N 44°18' E 008°29'0 0.0
2017-May-23 14:57N 44°18' E 008°29'0 0.0
2017-May-23 14:30N 44°18' E 008°29'0 0.3
2017-May-23 13:26N 44°19' E 008°30'1 1.3
2017-May-23 13:00N 44°19' E 008°30'1 1.6
2017-May-23 12:26N 44°18' E 008°29'0 0.0
2017-May-23 11:56N 44°18' E 008°29'0 0.0
2017-May-23 11:26N 44°18' E 008°29'0 0.0
2017-May-23 10:56N 44°18' E 008°29'0 0.0
2017-May-23 10:26N 44°18' E 008°29'0 0.0
2017-May-23 09:56N 44°18' E 008°29'0 0.0
2017-May-23 09:20N 44°18' E 008°29'0 0.0
2017-May-23 08:56N 44°18' E 008°29'0 0.0
2017-May-23 08:26N 44°18' E 008°29'0 0.0
2017-May-23 07:56N 44°18' E 008°29'0 0.0
2017-May-23 07:26N 44°18' E 008°29'0 0.0
2017-May-23 06:50N 44°18' E 008°29'0 0.0
2017-May-23 06:26N 44°18' E 008°29'0 0.0
2017-May-23 05:38N 44°18' E 008°29'0 0.0
2017-May-23 05:26N 44°18' E 008°29'0 0.0
2017-May-23 01:38N 44°18' E 008°29'0 0.0
2017-May-23 01:26N 44°18' E 008°29'0 0.0
2017-May-23 00:56N 44°18' E 008°29'0 0.0
2017-May-23 00:26N 44°18' E 008°29'0 0.0
2017-May-22 23:56N 44°18' E 008°29'0 0.0
2017-May-22 22:32N 44°18' E 008°29'0 0.0
2017-May-22 22:26N 44°18' E 008°29'0 0.3
2017-May-22 22:01N 44°19' E 008°29'3 5.8
2017-May-22 21:25N 44°16' E 008°27'4 9.3
2017-May-22 21:00N 44°19' E 008°30'1 1.0
2017-May-22 20:24N 44°18' E 008°29'0 0.0
2017-May-22 19:59N 44°18' E 008°29'0 0.0
2017-May-22 19:30N 44°18' E 008°29'0 0.0
2017-May-22 19:00N 44°18' E 008°29'0 0.0
2017-May-22 18:24N 44°18' E 008°29'0 0.0
2017-May-22 17:59N 44°18' E 008°29'0 0.0
2017-May-22 17:29N 44°18' E 008°29'0 0.0
2017-May-22 16:48N 44°18' E 008°29'0 0.0
2017-May-22 16:29N 44°18' E 008°29'0 0.0
2017-May-22 15:54N 44°18' E 008°29'0 0.0
2017-May-22 15:29N 44°18' E 008°29'0 0.0
2017-May-22 15:00N 44°18' E 008°29'0 0.0
2017-May-22 13:59N 44°18' E 008°29'0 0.0
2017-May-22 13:30N 44°18' E 008°29'0 0.0
2017-May-22 13:00N 44°18' E 008°29'0 0.0
2017-May-22 12:06N 44°18' E 008°29'0 0.0
2017-May-22 11:59N 44°18' E 008°29'0 0.0
2017-May-22 11:30N 44°18' E 008°29'0 0.0
2017-May-22 10:57N 44°18' E 008°29'0 0.0
2017-May-22 10:30N 44°18' E 008°29'0 0.0
2017-May-22 10:00N 44°18' E 008°29'0 0.0
2017-May-22 09:30N 44°18' E 008°29'0 0.0
2017-May-22 08:53N 44°18' E 008°29'0 0.0
2017-May-22 08:23N 44°18' E 008°29'0 0.0
2017-May-22 07:59N 44°18' E 008°29'0 0.0
2017-May-22 07:30N 44°18' E 008°29'0 0.0
2017-May-22 07:00N 44°18' E 008°29'0 0.0
2017-May-22 06:23N 44°18' E 008°29'0 0.0
2017-May-22 05:59N 44°18' E 008°29'0 0.0
2017-May-22 04:47N 44°18' E 008°29'0 0.0
2017-May-22 04:29N 44°18' E 008°29'0 0.0
2017-May-22 03:59N 44°18' E 008°29'0 0.0
2017-May-22 03:30N 44°18' E 008°29'0 0.0
2017-May-22 02:54N 44°18' E 008°29'0 0.0
2017-May-22 02:30N 44°18' E 008°29'0 0.0
2017-May-22 01:59N 44°18' E 008°29'0 0.0
2017-May-22 01:29N 44°18' E 008°29'0 0.0
2017-May-22 01:00N 44°18' E 008°29'0 0.0
2017-May-22 00:30N 44°18' E 008°29'0 0.0
2017-May-21 23:59N 44°18' E 008°29'0 0.0
2017-May-21 23:30N 44°18' E 008°29'0 0.0
2017-May-21 22:54N 44°18' E 008°29'0 0.0
2017-May-21 22:30N 44°18' E 008°29'0 0.0
2017-May-21 22:00N 44°18' E 008°29'0 0.0
2017-May-21 21:12N 44°18' E 008°29'0 0.0
2017-May-21 21:00N 44°18' E 008°29'0 0.0
2017-May-21 20:29N 44°18' E 008°29'0 0.0
2017-May-21 19:17N 44°18' E 008°29'0 0.0
2017-May-21 18:50N 44°18' E 008°29'0 0.0
2017-May-21 18:27N 44°18' E 008°29'0 0.0
2017-May-21 18:00N 44°18' E 008°29'0 0.0
2017-May-21 17:27N 44°18' E 008°29'0 0.0
2017-May-21 16:56N 44°18' E 008°29'0 0.0
2017-May-21 16:26N 44°18' E 008°29'0 0.0
2017-May-21 15:57N 44°18' E 008°29'0 0.0
2017-May-21 15:27N 44°18' E 008°29'0 0.0
2017-May-21 15:00N 44°18' E 008°29'0 0.0
2017-May-21 14:30N 44°18' E 008°29'0 0.0
2017-May-21 13:27N 44°18' E 008°29'0 0.0
2017-May-21 12:57N 44°18' E 008°29'0 0.0
2017-May-21 12:27N 44°18' E 008°29'0 0.0
2017-May-21 11:56N 44°18' E 008°29'0 0.0
2017-May-21 11:27N 44°18' E 008°29'0 0.0
2017-May-21 10:51N 44°18' E 008°29'0 0.0
2017-May-21 10:26N 44°18' E 008°29'0 0.0
2017-May-21 09:51N 44°18' E 008°29'0 0.0
2017-May-21 09:27N 44°18' E 008°29'0 0.0
2017-May-21 08:57N 44°18' E 008°29'0 0.0
2017-May-21 08:21N 44°18' E 008°29'0 0.0
2017-May-21 07:33N 44°18' E 008°29'0 0.0
2017-May-21 07:27N 44°18' E 008°29'0 0.0
2017-May-21 06:51N 44°18' E 008°29'0 0.0
2017-May-21 06:15N 44°18' E 008°29'0 0.0
2017-May-21 05:57N 44°18' E 008°29'0 0.0
2017-May-21 05:26N 44°18' E 008°29'0 0.0
2017-May-21 04:50N 44°18' E 008°29'0 0.0
2017-May-21 04:26N 44°18' E 008°29'0 0.0
2017-May-21 03:57N 44°18' E 008°29'0 0.0
2017-May-21 03:21N 44°18' E 008°29'0 0.0
2017-May-21 02:57N 44°18' E 008°29'0 0.0
2017-May-21 02:21N 44°18' E 008°29'0 0.0
2017-May-21 01:56N 44°18' E 008°29'0 0.0
2017-May-21 01:27N 44°18' E 008°29'0 0.0
2017-May-21 00:57N 44°18' E 008°29'0 0.0
2017-May-21 00:27N 44°18' E 008°29'0 0.0
2017-May-20 23:51N 44°18' E 008°29'0 0.0
2017-May-20 23:26N 44°18' E 008°29'0 0.0
2017-May-20 22:56N 44°18' E 008°29'0 0.0
2017-May-20 22:26N 44°18' E 008°29'0 0.0
2017-May-20 21:56N 44°18' E 008°29'0 0.0
2017-May-20 21:27N 44°18' E 008°29'0 0.0
2017-May-20 20:39N 44°18' E 008°29'0 0.0
2017-May-20 20:27N 44°18' E 008°29'0 0.0
2017-May-20 19:57N 44°18' E 008°29'0 0.0
2017-May-20 19:26N 44°18' E 008°29'0 0.0
2017-May-20 18:57N 44°18' E 008°29'0 0.0
2017-May-20 18:26N 44°18' E 008°29'0 0.0
2017-May-20 17:57N 44°18' E 008°29'0 0.0
2017-May-20 17:27N 44°18' E 008°29'0 0.0
2017-May-20 16:57N 44°18' E 008°29'0 0.0
2017-May-20 16:21N 44°18' E 008°29'0 0.0
2017-May-20 15:56N 44°18' E 008°29'0 0.0
2017-May-20 15:26N 44°18' E 008°29'0 0.0
2017-May-20 15:00N 44°18' E 008°29'1 1.3
2017-May-20 14:22N 44°19' E 008°30'1 0.9
2017-May-20 13:27N 44°18' E 008°29'0 0.0
2017-May-20 12:57N 44°18' E 008°29'0 0.0
2017-May-20 12:27N 44°18' E 008°29'0 0.0
2017-May-20 11:57N 44°18' E 008°29'0 0.0
2017-May-20 11:27N 44°18' E 008°29'0 0.0
2017-May-20 10:57N 44°18' E 008°29'0 0.0
2017-May-20 10:27N 44°18' E 008°29'0 0.0
2017-May-20 09:51N 44°18' E 008°29'0 0.0
2017-May-20 09:27N 44°18' E 008°29'0 0.0
2017-May-20 08:57N 44°18' E 008°29'0 0.0
2017-May-20 08:27N 44°18' E 008°29'0 0.0
2017-May-20 07:57N 44°18' E 008°29'0 0.0
2017-May-20 06:42N 44°18' E 008°29'0 0.0
2017-May-20 06:24N 44°18' E 008°29'0 0.0
2017-May-20 05:48N 44°18' E 008°29'0 0.0
2017-May-20 05:18N 44°18' E 008°29'0 0.0
2017-May-20 04:48N 44°18' E 008°29'0 0.0
2017-May-20 04:24N 44°18' E 008°29'0 0.0
2017-May-20 04:00N 44°18' E 008°29'0 0.0
2017-May-20 02:54N 44°18' E 008°29'0 0.0
2017-May-20 02:18N 44°18' E 008°29'0 0.0
2017-May-20 01:54N 44°18' E 008°29'0 0.0
2017-May-20 01:30N 44°18' E 008°29'0 0.0
2017-May-20 01:00N 44°18' E 008°29'0 0.0
2017-May-20 00:30N 44°18' E 008°29'0 0.0
2017-May-20 00:00N 44°18' E 008°29'0 0.0
2017-May-19 23:30N 44°18' E 008°29'0 0.0
2017-May-19 23:00N 44°18' E 008°29'0 0.0
2017-May-19 22:30N 44°18' E 008°29'0 0.0
2017-May-19 22:00N 44°18' E 008°29'0 0.0
2017-May-19 21:30N 44°18' E 008°29'0 0.0
2017-May-19 21:00N 44°18' E 008°29'0 0.0
2017-May-19 20:30N 44°18' E 008°29'0 0.0
2017-May-19 20:00N 44°18' E 008°29'0 0.0
2017-May-19 19:30N 44°18' E 008°29'0 0.0
2017-May-19 19:00N 44°18' E 008°29'0 0.0
2017-May-19 18:30N 44°18' E 008°29'0 0.0
2017-May-19 18:00N 44°18' E 008°29'0 0.0
2017-May-19 17:30N 44°18' E 008°29'0 0.0
2017-May-19 16:24N 44°18' E 008°29'0 0.0
2017-May-19 16:00N 44°18' E 008°29'0 0.0
2017-May-19 15:30N 44°18' E 008°29'0 0.0
2017-May-19 15:00N 44°18' E 008°29'0 0.0
2017-May-19 13:42N 44°18' E 008°29'0 0.0
2017-May-19 11:54N 44°18' E 008°29'0 0.0
2017-May-19 11:24N 44°18' E 008°29'0 0.0
2017-May-19 11:00N 44°18' E 008°29'0 0.0
2017-May-19 10:30N 44°18' E 008°29'0 0.0
2017-May-19 09:54N 44°18' E 008°29'0 0.0
2017-May-19 09:30N 44°18' E 008°29'0 0.0
2017-May-19 09:00N 44°18' E 008°29'0 0.0
2017-May-19 08:30N 44°18' E 008°29'1 1.3
2017-May-19 07:58N 44°19' E 008°30'1 1.4
2017-May-19 07:26N 44°18' E 008°29'0 0.0
2017-May-19 06:56N 44°18' E 008°29'0 0.0
2017-May-19 06:20N 44°18' E 008°29'0 0.0
2017-May-19 05:56N 44°18' E 008°29'0 0.0
2017-May-19 05:26N 44°18' E 008°29'0 0.0
2017-May-19 04:56N 44°18' E 008°29'0 0.0
2017-May-19 04:26N 44°18' E 008°29'0 0.0
2017-May-19 03:59N 44°18' E 008°29'0 0.0
2017-May-19 03:26N 44°18' E 008°29'0 0.0
2017-May-19 02:59N 44°18' E 008°29'0 0.0
2017-May-19 02:26N 44°18' E 008°29'0 0.0
2017-May-19 01:50N 44°18' E 008°29'0 0.0
2017-May-19 01:26N 44°18' E 008°29'0 0.0
2017-May-19 00:59N 44°18' E 008°29'0 0.0
2017-May-19 00:29N 44°18' E 008°29'0 0.0
2017-May-18 23:50N 44°18' E 008°29'0 0.0
2017-May-18 23:26N 44°18' E 008°29'0 0.0
2017-May-18 22:56N 44°18' E 008°29'0 0.0
2017-May-18 22:26N 44°18' E 008°29'0 0.0
2017-May-18 21:56N 44°18' E 008°29'0 0.0
2017-May-18 21:26N 44°18' E 008°29'0 0.0
2017-May-18 20:56N 44°18' E 008°29'0 0.0
2017-May-18 20:20N 44°18' E 008°29'0 0.0
2017-May-18 19:56N 44°18' E 008°29'0 0.0
2017-May-18 18:02N 44°18' E 008°29'0 0.0
2017-May-18 17:14N 44°18' E 008°29'0 0.0
2017-May-18 16:50N 44°18' E 008°29'1 2.5
2017-May-18 16:30N 44°19' E 008°30'3 5.4
2017-May-18 15:57N 44°17' E 008°28'0 0.1
2017-May-18 15:27N 44°17' E 008°28'0 0.7
2017-May-18 15:00N 44°17' E 008°27'1 1.4
2017-May-18 14:30N 44°16' E 008°27'3 3.3
2017-May-18 13:30N 44°18' E 008°30'0 0.5
2017-May-18 12:50N 44°19' E 008°30'1 1.5
2017-May-18 12:29N 44°18' E 008°29'0 0.0
2017-May-18 08:35N 44°18' E 008°29'0 0.0
2017-May-18 08:29N 44°18' E 008°29'0 0.0
2017-May-18 05:06N 44°18' E 008°29'0 4.8
2017-May-18 05:00N 44°19' E 008°30'1 0.9
2017-May-18 04:17N 44°19' E 008°31'1 1.9
2017-May-18 03:45N 44°18' E 008°29'0 0.0
2017-May-18 03:03N 44°18' E 008°29'0 0.0
2017-May-18 02:39N 44°18' E 008°29'0 0.0
2017-May-18 02:21N 44°18' E 008°29'0 0.0
2017-May-17 23:21N 44°18' E 008°29'0 0.0
2017-May-17 21:27N 44°18' E 008°29'0 0.0
2017-May-17 20:00N 44°18' E 008°29'0 0.0
2017-May-17 19:30N 44°18' E 008°29'0 0.0
2017-May-17 19:00N 44°18' E 008°29'0 0.0
2017-May-17 18:15N 44°18' E 008°29'0 0.0
2017-May-17 18:00N 44°18' E 008°29'0 0.0
2017-May-17 17:27N 44°18' E 008°29'0 0.0
2017-May-17 17:00N 44°18' E 008°29'0 0.0
2017-May-17 16:30N 44°18' E 008°29'0 0.0
2017-May-17 16:00N 44°18' E 008°29'0 0.0
2017-May-17 15:30N 44°18' E 008°29'0 0.0
2017-May-17 15:00N 44°18' E 008°29'0 0.0
2017-May-17 14:21N 44°18' E 008°29'1 1.0
2017-May-17 13:30N 44°19' E 008°30'3 5.7
2017-May-17 12:57N 44°16' E 008°28'0 0.7
2017-May-17 12:30N 44°16' E 008°28'3 6.7
2017-May-17 12:00N 44°19' E 008°30'1 1.7
2017-May-17 11:29N 44°18' E 008°29'0 0.0
2017-May-17 10:59N 44°18' E 008°29'0 0.0
2017-May-17 10:14N 44°18' E 008°29'0 0.0
2017-May-17 09:59N 44°18' E 008°29'0 0.0
2017-May-17 09:29N 44°18' E 008°29'0 0.0
2017-May-17 08:59N 44°18' E 008°29'0 0.0
2017-May-17 08:29N 44°18' E 008°29'0 0.0
2017-May-17 07:53N 44°18' E 008°29'0 0.0
2017-May-17 07:17N 44°18' E 008°29'0 0.0
2017-May-17 06:17N 44°18' E 008°29'0 0.0
2017-May-17 05:53N 44°18' E 008°29'0 0.0
2017-May-17 05:29N 44°18' E 008°29'0 0.0
2017-May-17 04:59N 44°18' E 008°29'0 0.0
2017-May-17 04:23N 44°18' E 008°29'0 0.0
2017-May-17 03:41N 44°18' E 008°29'0 0.0
2017-May-17 03:29N 44°18' E 008°29'0 0.0
2017-May-17 02:47N 44°18' E 008°29'0 0.0
2017-May-17 02:17N 44°18' E 008°29'0 0.0
2017-May-17 01:53N 44°18' E 008°29'0 0.0
2017-May-17 01:23N 44°18' E 008°29'0 0.0
2017-May-17 00:59N 44°18' E 008°29'0 0.0
2017-May-17 00:17N 44°18' E 008°29'0 0.0
2017-May-16 23:41N 44°18' E 008°29'0 0.0
2017-May-16 23:29N 44°18' E 008°29'0 0.0
2017-May-16 22:56N 44°18' E 008°29'0 0.0
2017-May-16 21:05N 44°18' E 008°29'0 0.0
2017-May-16 20:53N 44°18' E 008°29'0 0.0
2017-May-16 20:26N 44°18' E 008°29'0 0.0
2017-May-16 19:59N 44°18' E 008°29'0 0.0
2017-May-16 19:17N 44°18' E 008°29'0 0.0
2017-May-16 18:53N 44°18' E 008°29'0 0.0
2017-May-16 18:29N 44°18' E 008°29'0 0.0
2017-May-16 17:59N 44°18' E 008°29'0 0.0
2017-May-16 17:29N 44°18' E 008°29'0 0.0
2017-May-16 16:59N 44°18' E 008°29'0 0.0
2017-May-16 15:32N 44°18' E 008°29'0 0.0
2017-May-16 15:20N 44°18' E 008°29'0 0.0
2017-May-16 13:38N 44°18' E 008°29'0 0.0
2017-May-16 11:35N 44°18' E 008°29'0 0.0
2017-May-16 11:29N 44°18' E 008°29'0 0.0
2017-May-16 10:59N 44°18' E 008°29'0 0.0
2017-May-16 10:29N 44°18' E 008°29'0 0.0
2017-May-16 09:59N 44°18' E 008°29'0 0.0
2017-May-16 09:29N 44°18' E 008°29'0 0.0
2017-May-16 08:23N 44°18' E 008°29'0 0.0
2017-May-16 07:59N 44°18' E 008°29'0 0.0
2017-May-16 07:23N 44°18' E 008°29'0 0.0
2017-May-16 06:53N 44°18' E 008°29'0 0.0
2017-May-16 06:20N 44°18' E 008°29'0 0.0
2017-May-16 05:59N 44°18' E 008°29'0 0.0
2017-May-16 05:00N 44°18' E 008°29'1 1.4
2017-May-16 04:26N 44°19' E 008°30'1 1.7
2017-May-16 03:58N 44°18' E 008°29'0 0.0
2017-May-16 03:13N 44°18' E 008°29'0 0.0
2017-May-16 02:43N 44°18' E 008°29'0 0.0
2017-May-16 02:25N 44°18' E 008°29'0 0.0
2017-May-16 01:55N 44°18' E 008°29'0 0.0
2017-May-16 01:25N 44°18' E 008°29'0 0.0
2017-May-16 00:58N 44°18' E 008°29'0 0.0
2017-May-16 00:28N 44°18' E 008°29'0 0.0
2017-May-15 23:49N 44°18' E 008°29'0 0.0
2017-May-15 23:25N 44°18' E 008°29'0 0.0
2017-May-15 22:55N 44°18' E 008°29'0 0.0
2017-May-15 22:25N 44°18' E 008°29'0 0.0
2017-May-15 21:55N 44°18' E 008°29'0 0.0
2017-May-15 21:19N 44°18' E 008°29'0 0.0
2017-May-15 20:55N 44°18' E 008°29'0 0.0
2017-May-15 20:25N 44°18' E 008°29'0 0.0
2017-May-15 19:55N 44°18' E 008°29'0 0.0
2017-May-15 19:25N 44°18' E 008°29'0 0.0
2017-May-15 18:49N 44°18' E 008°29'0 0.0
2017-May-15 18:25N 44°18' E 008°29'0 0.0
2017-May-15 17:55N 44°18' E 008°29'0 0.0
2017-May-15 17:19N 44°18' E 008°29'0 0.0
2017-May-15 16:49N 44°18' E 008°29'0 0.0
2017-May-15 16:25N 44°18' E 008°29'0 0.0
2017-May-15 15:55N 44°18' E 008°29'0 0.0
2017-May-15 15:25N 44°18' E 008°29'0 0.0
2017-May-15 14:55N 44°18' E 008°29'0 0.0
2017-May-15 13:55N 44°18' E 008°29'0 0.0
2017-May-15 13:25N 44°18' E 008°29'0 0.0
2017-May-15 12:55N 44°18' E 008°29'0 0.0
2017-May-15 12:01N 44°18' E 008°29'0 0.0
2017-May-15 11:49N 44°18' E 008°29'0 0.0
2017-May-15 11:25N 44°18' E 008°29'0 0.0
2017-May-15 10:55N 44°18' E 008°29'0 0.0
2017-May-15 10:25N 44°18' E 008°29'0 0.0
2017-May-15 09:55N 44°18' E 008°29'0 0.0
2017-May-15 09:25N 44°18' E 008°29'0 0.0
2017-May-15 08:49N 44°18' E 008°29'0 0.0
2017-May-15 08:25N 44°18' E 008°29'0 0.0
2017-May-15 07:55N 44°18' E 008°29'0 0.0
2017-May-15 07:19N 44°18' E 008°29'0 0.0
2017-May-15 06:49N 44°18' E 008°29'0 0.0
2017-May-15 06:01N 44°18' E 008°29'0 0.0
2017-May-15 04:19N 44°18' E 008°29'0 0.0
2017-May-15 03:49N 44°18' E 008°29'0 0.0
2017-May-15 03:19N 44°18' E 008°29'0 0.0
2017-May-15 02:43N 44°18' E 008°29'0 0.0
2017-May-15 02:19N 44°18' E 008°29'0 0.0
2017-May-15 01:49N 44°18' E 008°29'0 0.0
2017-May-15 01:13N 44°18' E 008°29'0 0.0
2017-May-15 00:43N 44°18' E 008°29'0 0.0
2017-May-15 00:25N 44°18' E 008°29'0 0.0
2017-May-14 23:55N 44°18' E 008°29'0 0.0
2017-May-14 23:07N 44°18' E 008°29'0 0.0
2017-May-14 22:55N 44°18' E 008°29'0 0.0
2017-May-14 22:25N 44°18' E 008°29'0 0.0
2017-May-14 20:25N 44°18' E 008°29'0 0.0
2017-May-14 19:49N 44°18' E 008°29'0 0.0
2017-May-14 19:25N 44°18' E 008°29'0 0.0
2017-May-14 18:55N 44°18' E 008°29'0 0.0
2017-May-14 18:19N 44°18' E 008°29'0 0.0
2017-May-14 17:49N 44°18' E 008°29'0 0.0
2017-May-14 17:25N 44°18' E 008°29'0 0.0
2017-May-14 16:55N 44°18' E 008°29'0 0.0
2017-May-14 16:19N 44°18' E 008°29'0 0.0
2017-May-14 15:55N 44°18' E 008°29'0 0.0
2017-May-14 15:25N 44°18' E 008°29'0 0.0
2017-May-14 14:55N 44°18' E 008°29'0 0.0
2017-May-14 14:25N 44°18' E 008°29'0 0.0
2017-May-14 13:25N 44°18' E 008°29'0 0.0
2017-May-14 12:55N 44°18' E 008°29'0 0.0
2017-May-14 12:25N 44°18' E 008°29'0 0.0
2017-May-14 11:55N 44°18' E 008°29'0 0.0
2017-May-14 11:25N 44°18' E 008°29'0 0.0
2017-May-14 10:49N 44°18' E 008°29'0 0.0
2017-May-14 10:25N 44°18' E 008°29'  
Track history (hours):
 
Tides and Currents Weather Stations Pressure Air Temp Water Temp Dewpoint Dewpoint Depression Visibility Wind Speed Wind Dir Waves Ship Positions

Capo Vado

Last reported at 2017-May-24 09:59 UTC. Time now 2017-May-24 10:08 UTC.
Position N 44°17' E 008°28'.

; draft 4.5 m.

Type: Tug. MMSI: 247228400.

Date/timePositionNaut miles runAvg speedWind from/ knotsBaromVisibWave heightAir tempDewpointWater temp
2017-May-24 09:59N 44°17' E 008°28'1 1.2
2017-May-24 09:30N 44°16' E 008°28'0 0.8
2017-May-24 08:59N 44°16' E 008°28'3 5.8
2017-May-24 08:30N 44°19' E 008°30'1 1.4
2017-May-24 08:01N 44°18' E 008°29'0 0.0
2017-May-24 07:31N 44°18' E 008°29'0 0.0
2017-May-24 06:58N 44°18' E 008°29'0 0.0
2017-May-24 06:28N 44°18' E 008°29'0 0.0
2017-May-24 05:52N 44°18' E 008°29'0 0.0
2017-May-24 05:13N 44°18' E 008°29'0 0.0
2017-May-24 04:52N 44°18' E 008°29'0 0.0
2017-May-24 04:19N 44°18' E 008°29'0 0.0
2017-May-24 03:49N 44°18' E 008°29'0 0.0
2017-May-24 03:25N 44°18' E 008°29'0 0.0
2017-May-24 02:07N 44°18' E 008°29'0 0.0
2017-May-24 01:55N 44°18' E 008°29'0 0.0
2017-May-24 00:13N 44°18' E 008°29'0 0.0
2017-May-24 00:01N 44°18' E 008°29'0 0.0
2017-May-23 23:31N 44°18' E 008°29'0 0.0
2017-May-23 23:01N 44°18' E 008°29'0 1.0
2017-May-23 22:30N 44°19' E 008°30'0 0.7
2017-May-23 21:45N 44°18' E 008°29'0 0.0
2017-May-23 20:45N 44°18' E 008°29'0 0.0
2017-May-23 20:27N 44°18' E 008°29'0 0.0
2017-May-23 19:57N 44°18' E 008°29'0 0.0
2017-May-23 19:15N 44°18' E 008°29'0 0.0
2017-May-23 18:51N 44°18' E 008°29'0 0.0
2017-May-23 18:21N 44°18' E 008°29'0 0.0
2017-May-23 17:57N 44°18' E 008°29'0 0.0
2017-May-23 17:27N 44°18' E 008°29'0 0.0
2017-May-23 16:57N 44°18' E 008°29'0 0.0
2017-May-23 16:27N 44°18' E 008°29'0 0.0
2017-May-23 15:51N 44°18' E 008°29'0 0.0
2017-May-23 15:27N 44°18' E 008°29'0 0.0
2017-May-23 14:57N 44°18' E 008°29'0 0.0
2017-May-23 14:30N 44°18' E 008°29'0 0.3
2017-May-23 13:26N 44°19' E 008°30'1 1.3
2017-May-23 13:00N 44°19' E 008°30'1 1.6
2017-May-23 12:26N 44°18' E 008°29'0 0.0
2017-May-23 11:56N 44°18' E 008°29'0 0.0
2017-May-23 11:26N 44°18' E 008°29'0 0.0
2017-May-23 10:56N 44°18' E 008°29'0 0.0
2017-May-23 10:26N 44°18' E 008°29'0 0.0
2017-May-23 09:56N 44°18' E 008°29'0 0.0
2017-May-23 09:20N 44°18' E 008°29'0 0.0
2017-May-23 08:56N 44°18' E 008°29'0 0.0
2017-May-23 08:26N 44°18' E 008°29'0 0.0
2017-May-23 07:56N 44°18' E 008°29'0 0.0
2017-May-23 07:26N 44°18' E 008°29'0 0.0
2017-May-23 06:50N 44°18' E 008°29'0 0.0
2017-May-23 06:26N 44°18' E 008°29'0 0.0
2017-May-23 05:38N 44°18' E 008°29'0 0.0
2017-May-23 05:26N 44°18' E 008°29'0 0.0
2017-May-23 01:38N 44°18' E 008°29'0 0.0
2017-May-23 01:26N 44°18' E 008°29'0 0.0
2017-May-23 00:56N 44°18' E 008°29'0 0.0
2017-May-23 00:26N 44°18' E 008°29'0 0.0
2017-May-22 23:56N 44°18' E 008°29'0 0.0
2017-May-22 22:32N 44°18' E 008°29'0 0.0
2017-May-22 22:26N 44°18' E 008°29'0 0.3
2017-May-22 22:01N 44°19' E 008°29'3 5.8
2017-May-22 21:25N 44°16' E 008°27'4 9.3
2017-May-22 21:00N 44°19' E 008°30'1 1.0
2017-May-22 20:24N 44°18' E 008°29'0 0.0
2017-May-22 19:59N 44°18' E 008°29'0 0.0
2017-May-22 19:30N 44°18' E 008°29'0 0.0
2017-May-22 19:00N 44°18' E 008°29'0 0.0
2017-May-22 18:24N 44°18' E 008°29'0 0.0
2017-May-22 17:59N 44°18' E 008°29'0 0.0
2017-May-22 17:29N 44°18' E 008°29'0 0.0
2017-May-22 16:48N 44°18' E 008°29'0 0.0
2017-May-22 16:29N 44°18' E 008°29'0 0.0
2017-May-22 15:54N 44°18' E 008°29'0 0.0
2017-May-22 15:29N 44°18' E 008°29'0 0.0
2017-May-22 15:00N 44°18' E 008°29'0 0.0
2017-May-22 13:59N 44°18' E 008°29'0 0.0
2017-May-22 13:30N 44°18' E 008°29'0 0.0
2017-May-22 13:00N 44°18' E 008°29'0 0.0
2017-May-22 12:06N 44°18' E 008°29'0 0.0
2017-May-22 11:59N 44°18' E 008°29'0 0.0
2017-May-22 11:30N 44°18' E 008°29'0 0.0
2017-May-22 10:57N 44°18' E 008°29'0 0.0
2017-May-22 10:30N 44°18' E 008°29'0 0.0
2017-May-22 10:00N 44°18' E 008°29'0 0.0
2017-May-22 09:30N 44°18' E 008°29'0 0.0
2017-May-22 08:53N 44°18' E 008°29'0 0.0
2017-May-22 08:23N 44°18' E 008°29'0 0.0
2017-May-22 07:59N 44°18' E 008°29'0 0.0
2017-May-22 07:30N 44°18' E 008°29'0 0.0
2017-May-22 07:00N 44°18' E 008°29'0 0.0
2017-May-22 06:23N 44°18' E 008°29'0 0.0
2017-May-22 05:59N 44°18' E 008°29'0 0.0
2017-May-22 04:47N 44°18' E 008°29'0 0.0
2017-May-22 04:29N 44°18' E 008°29'0 0.0
2017-May-22 03:59N 44°18' E 008°29'0 0.0
2017-May-22 03:30N 44°18' E 008°29'0 0.0
2017-May-22 02:54N 44°18' E 008°29'0 0.0
2017-May-22 02:30N 44°18' E 008°29'0 0.0
2017-May-22 01:59N 44°18' E 008°29'0 0.0
2017-May-22 01:29N 44°18' E 008°29'0 0.0
2017-May-22 01:00N 44°18' E 008°29'0 0.0
2017-May-22 00:30N 44°18' E 008°29'0 0.0
2017-May-21 23:59N 44°18' E 008°29'0 0.0
2017-May-21 23:30N 44°18' E 008°29'0 0.0
2017-May-21 22:54N 44°18' E 008°29'0 0.0
2017-May-21 22:30N 44°18' E 008°29'0 0.0
2017-May-21 22:00N 44°18' E 008°29'0 0.0
2017-May-21 21:12N 44°18' E 008°29'0 0.0
2017-May-21 21:00N 44°18' E 008°29'0 0.0
2017-May-21 20:29N 44°18' E 008°29'0 0.0
2017-May-21 19:17N 44°18' E 008°29'0 0.0
2017-May-21 18:50N 44°18' E 008°29'0 0.0
2017-May-21 18:27N 44°18' E 008°29'0 0.0
2017-May-21 18:00N 44°18' E 008°29'0 0.0
2017-May-21 17:27N 44°18' E 008°29'0 0.0
2017-May-21 16:56N 44°18' E 008°29'0 0.0
2017-May-21 16:26N 44°18' E 008°29'0 0.0
2017-May-21 15:57N 44°18' E 008°29'0 0.0
2017-May-21 15:27N 44°18' E 008°29'0 0.0
2017-May-21 15:00N 44°18' E 008°29'0 0.0
2017-May-21 14:30N 44°18' E 008°29'0 0.0
2017-May-21 13:27N 44°18' E 008°29'0 0.0
2017-May-21 12:57N 44°18' E 008°29'0 0.0
2017-May-21 12:27N 44°18' E 008°29'0 0.0
2017-May-21 11:56N 44°18' E 008°29'0 0.0
2017-May-21 11:27N 44°18' E 008°29'0 0.0
2017-May-21 10:51N 44°18' E 008°29'0 0.0
2017-May-21 10:26N 44°18' E 008°29'0 0.0
2017-May-21 09:51N 44°18' E 008°29'0 0.0
2017-May-21 09:27N 44°18' E 008°29'0 0.0
2017-May-21 08:57N 44°18' E 008°29'0 0.0
2017-May-21 08:21N 44°18' E 008°29'0 0.0
2017-May-21 07:33N 44°18' E 008°29'0 0.0
2017-May-21 07:27N 44°18' E 008°29'0 0.0
2017-May-21 06:51N 44°18' E 008°29'0 0.0
2017-May-21 06:15N 44°18' E 008°29'0 0.0
2017-May-21 05:57N 44°18' E 008°29'0 0.0
2017-May-21 05:26N 44°18' E 008°29'0 0.0
2017-May-21 04:50N 44°18' E 008°29'0 0.0
2017-May-21 04:26N 44°18' E 008°29'0 0.0
2017-May-21 03:57N 44°18' E 008°29'0 0.0
2017-May-21 03:21N 44°18' E 008°29'0 0.0
2017-May-21 02:57N 44°18' E 008°29'0 0.0
2017-May-21 02:21N 44°18' E 008°29'0 0.0
2017-May-21 01:56N 44°18' E 008°29'0 0.0
2017-May-21 01:27N 44°18' E 008°29'0 0.0
2017-May-21 00:57N 44°18' E 008°29'0 0.0
2017-May-21 00:27N 44°18' E 008°29'0 0.0
2017-May-20 23:51N 44°18' E 008°29'0 0.0
2017-May-20 23:26N 44°18' E 008°29'0 0.0
2017-May-20 22:56N 44°18' E 008°29'0 0.0
2017-May-20 22:26N 44°18' E 008°29'0 0.0
2017-May-20 21:56N 44°18' E 008°29'0 0.0
2017-May-20 21:27N 44°18' E 008°29'0 0.0
2017-May-20 20:39N 44°18' E 008°29'0 0.0
2017-May-20 20:27N 44°18' E 008°29'0 0.0
2017-May-20 19:57N 44°18' E 008°29'0 0.0
2017-May-20 19:26N 44°18' E 008°29'0 0.0
2017-May-20 18:57N 44°18' E 008°29'0 0.0
2017-May-20 18:26N 44°18' E 008°29'0 0.0
2017-May-20 17:57N 44°18' E 008°29'0 0.0
2017-May-20 17:27N 44°18' E 008°29'0 0.0
2017-May-20 16:57N 44°18' E 008°29'0 0.0
2017-May-20 16:21N 44°18' E 008°29'0 0.0
2017-May-20 15:56N 44°18' E 008°29'0 0.0
2017-May-20 15:26N 44°18' E 008°29'0 0.0
2017-May-20 15:00N 44°18' E 008°29'1 1.3
2017-May-20 14:22N 44°19' E 008°30'1 0.9
2017-May-20 13:27N 44°18' E 008°29'0 0.0
2017-May-20 12:57N 44°18' E 008°29'0 0.0
2017-May-20 12:27N 44°18' E 008°29'0 0.0
2017-May-20 11:57N 44°18' E 008°29'0 0.0
2017-May-20 11:27N 44°18' E 008°29'0 0.0
2017-May-20 10:57N 44°18' E 008°29'0 0.0
2017-May-20 10:27N 44°18' E 008°29'0 0.0
2017-May-20 09:51N 44°18' E 008°29'0 0.0
2017-May-20 09:27N 44°18' E 008°29'0 0.0
2017-May-20 08:57N 44°18' E 008°29'0 0.0
2017-May-20 08:27N 44°18' E 008°29'0 0.0
2017-May-20 07:57N 44°18' E 008°29'0 0.0
2017-May-20 06:42N 44°18' E 008°29'0 0.0
2017-May-20 06:24N 44°18' E 008°29'0 0.0
2017-May-20 05:48N 44°18' E 008°29'0 0.0
2017-May-20 05:18N 44°18' E 008°29'0 0.0
2017-May-20 04:48N 44°18' E 008°29'0 0.0
2017-May-20 04:24N 44°18' E 008°29'0 0.0
2017-May-20 04:00N 44°18' E 008°29'0 0.0
2017-May-20 02:54N 44°18' E 008°29'0 0.0
2017-May-20 02:18N 44°18' E 008°29'0 0.0
2017-May-20 01:54N 44°18' E 008°29'0 0.0
2017-May-20 01:30N 44°18' E 008°29'0 0.0
2017-May-20 01:00N 44°18' E 008°29'0 0.0
2017-May-20 00:30N 44°18' E 008°29'0 0.0
2017-May-20 00:00N 44°18' E 008°29'0 0.0
2017-May-19 23:30N 44°18' E 008°29'0 0.0
2017-May-19 23:00N 44°18' E 008°29'0 0.0
2017-May-19 22:30N 44°18' E 008°29'0 0.0
2017-May-19 22:00N 44°18' E 008°29'0 0.0
2017-May-19 21:30N 44°18' E 008°29'0 0.0
2017-May-19 21:00N 44°18' E 008°29'0 0.0
2017-May-19 20:30N 44°18' E 008°29'0 0.0
2017-May-19 20:00N 44°18' E 008°29'0 0.0
2017-May-19 19:30N 44°18' E 008°29'0 0.0
2017-May-19 19:00N 44°18' E 008°29'0 0.0
2017-May-19 18:30N 44°18' E 008°29'0 0.0
2017-May-19 18:00N 44°18' E 008°29'0 0.0
2017-May-19 17:30N 44°18' E 008°29'0 0.0
2017-May-19 16:24N 44°18' E 008°29'0 0.0
2017-May-19 16:00N 44°18' E 008°29'0 0.0
2017-May-19 15:30N 44°18' E 008°29'0 0.0
2017-May-19 15:00N 44°18' E 008°29'0 0.0
2017-May-19 13:42N 44°18' E 008°29'0 0.0
2017-May-19 11:54N 44°18' E 008°29'0 0.0
2017-May-19 11:24N 44°18' E 008°29'0 0.0
2017-May-19 11:00N 44°18' E 008°29'0 0.0
2017-May-19 10:30N 44°18' E 008°29'0 0.0
2017-May-19 09:54N 44°18' E 008°29'0 0.0
2017-May-19 09:30N 44°18' E 008°29'0 0.0
2017-May-19 09:00N 44°18' E 008°29'0 0.0
2017-May-19 08:30N 44°18' E 008°29'1 1.3
2017-May-19 07:58N 44°19' E 008°30'1 1.4
2017-May-19 07:26N 44°18' E 008°29'0 0.0
2017-May-19 06:56N 44°18' E 008°29'0 0.0
2017-May-19 06:20N 44°18' E 008°29'0 0.0
2017-May-19 05:56N 44°18' E 008°29'0 0.0
2017-May-19 05:26N 44°18' E 008°29'0 0.0
2017-May-19 04:56N 44°18' E 008°29'0 0.0
2017-May-19 04:26N 44°18' E 008°29'0 0.0
2017-May-19 03:59N 44°18' E 008°29'0 0.0
2017-May-19 03:26N 44°18' E 008°29'0 0.0
2017-May-19 02:59N 44°18' E 008°29'0 0.0
2017-May-19 02:26N 44°18' E 008°29'0 0.0
2017-May-19 01:50N 44°18' E 008°29'0 0.0
2017-May-19 01:26N 44°18' E 008°29'0 0.0
2017-May-19 00:59N 44°18' E 008°29'0 0.0
2017-May-19 00:29N 44°18' E 008°29'0 0.0
2017-May-18 23:50N 44°18' E 008°29'0 0.0
2017-May-18 23:26N 44°18' E 008°29'0 0.0
2017-May-18 22:56N 44°18' E 008°29'0 0.0
2017-May-18 22:26N 44°18' E 008°29'0 0.0
2017-May-18 21:56N 44°18' E 008°29'0 0.0
2017-May-18 21:26N 44°18' E 008°29'0 0.0
2017-May-18 20:56N 44°18' E 008°29'0 0.0
2017-May-18 20:20N 44°18' E 008°29'0 0.0
2017-May-18 19:56N 44°18' E 008°29'0 0.0
2017-May-18 18:02N 44°18' E 008°29'0 0.0
2017-May-18 17:14N 44°18' E 008°29'0 0.0
2017-May-18 16:50N 44°18' E 008°29'1 2.5
2017-May-18 16:30N 44°19' E 008°30'3 5.4
2017-May-18 15:57N 44°17' E 008°28'0 0.1
2017-May-18 15:27N 44°17' E 008°28'0 0.7
2017-May-18 15:00N 44°17' E 008°27'1 1.4
2017-May-18 14:30N 44°16' E 008°27'3 3.3
2017-May-18 13:30N 44°18' E 008°30'0 0.5
2017-May-18 12:50N 44°19' E 008°30'1 1.5
2017-May-18 12:29N 44°18' E 008°29'0 0.0
2017-May-18 08:35N 44°18' E 008°29'0 0.0
2017-May-18 08:29N 44°18' E 008°29'0 0.0
2017-May-18 05:06N 44°18' E 008°29'0 4.8
2017-May-18 05:00N 44°19' E 008°30'1 0.9
2017-May-18 04:17N 44°19' E 008°31'1 1.9
2017-May-18 03:45N 44°18' E 008°29'0 0.0
2017-May-18 03:03N 44°18' E 008°29'0 0.0
2017-May-18 02:39N 44°18' E 008°29'0 0.0
2017-May-18 02:21N 44°18' E 008°29'0 0.0
2017-May-17 23:21N 44°18' E 008°29'0 0.0
2017-May-17 21:27N 44°18' E 008°29'0 0.0
2017-May-17 20:00N 44°18' E 008°29'0 0.0
2017-May-17 19:30N 44°18' E 008°29'0 0.0
2017-May-17 19:00N 44°18' E 008°29'0 0.0
2017-May-17 18:15N 44°18' E 008°29'0 0.0
2017-May-17 18:00N 44°18' E 008°29'0 0.0
2017-May-17 17:27N 44°18' E 008°29'0 0.0
2017-May-17 17:00N 44°18' E 008°29'0 0.0
2017-May-17 16:30N 44°18' E 008°29'0 0.0
2017-May-17 16:00N 44°18' E 008°29'0 0.0
2017-May-17 15:30N 44°18' E 008°29'0 0.0
2017-May-17 15:00N 44°18' E 008°29'0 0.0
2017-May-17 14:21N 44°18' E 008°29'1 1.0
2017-May-17 13:30N 44°19' E 008°30'3 5.7
2017-May-17 12:57N 44°16' E 008°28'0 0.7
2017-May-17 12:30N 44°16' E 008°28'3 6.7
2017-May-17 12:00N 44°19' E 008°30'1 1.7
2017-May-17 11:29N 44°18' E 008°29'0 0.0
2017-May-17 10:59N 44°18' E 008°29'0 0.0
2017-May-17 10:14N 44°18' E 008°29'0 0.0
2017-May-17 09:59N 44°18' E 008°29'0 0.0
2017-May-17 09:29N 44°18' E 008°29'0 0.0
2017-May-17 08:59N 44°18' E 008°29'0 0.0
2017-May-17 08:29N 44°18' E 008°29'0 0.0
2017-May-17 07:53N 44°18' E 008°29'0 0.0
2017-May-17 07:17N 44°18' E 008°29'0 0.0
2017-May-17 06:17N 44°18' E 008°29'0 0.0
2017-May-17 05:53N 44°18' E 008°29'0 0.0
2017-May-17 05:29N 44°18' E 008°29'0 0.0
2017-May-17 04:59N 44°18' E 008°29'0 0.0
2017-May-17 04:23N 44°18' E 008°29'0 0.0
2017-May-17 03:41N 44°18' E 008°29'0 0.0
2017-May-17 03:29N 44°18' E 008°29'0 0.0
2017-May-17 02:47N 44°18' E 008°29'0 0.0
2017-May-17 02:17N 44°18' E 008°29'0 0.0
2017-May-17 01:53N 44°18' E 008°29'0 0.0
2017-May-17 01:23N 44°18' E 008°29'0 0.0
2017-May-17 00:59N 44°18' E 008°29'0 0.0
2017-May-17 00:17N 44°18' E 008°29'0 0.0
2017-May-16 23:41N 44°18' E 008°29'0 0.0
2017-May-16 23:29N 44°18' E 008°29'0 0.0
2017-May-16 22:56N 44°18' E 008°29'0 0.0
2017-May-16 21:05N 44°18' E 008°29'0 0.0
2017-May-16 20:53N 44°18' E 008°29'0 0.0
2017-May-16 20:26N 44°18' E 008°29'0 0.0
2017-May-16 19:59N 44°18' E 008°29'0 0.0
2017-May-16 19:17N 44°18' E 008°29'0 0.0
2017-May-16 18:53N 44°18' E 008°29'0 0.0
2017-May-16 18:29N 44°18' E 008°29'0 0.0
2017-May-16 17:59N 44°18' E 008°29'0 0.0
2017-May-16 17:29N 44°18' E 008°29'0 0.0
2017-May-16 16:59N 44°18' E 008°29'0 0.0
2017-May-16 15:32N 44°18' E 008°29'0 0.0
2017-May-16 15:20N 44°18' E 008°29'0 0.0
2017-May-16 13:38N 44°18' E 008°29'0 0.0
2017-May-16 11:35N 44°18' E 008°29'0 0.0
2017-May-16 11:29N 44°18' E 008°29'0 0.0
2017-May-16 10:59N 44°18' E 008°29'0 0.0
2017-May-16 10:29N 44°18' E 008°29'0 0.0
2017-May-16 09:59N 44°18' E 008°29'0 0.0
2017-May-16 09:29N 44°18' E 008°29'0 0.0
2017-May-16 08:23N 44°18' E 008°29'0 0.0
2017-May-16 07:59N 44°18' E 008°29'0 0.0
2017-May-16 07:23N 44°18' E 008°29'0 0.0
2017-May-16 06:53N 44°18' E 008°29'0 0.0
2017-May-16 06:20N 44°18' E 008°29'0 0.0
2017-May-16 05:59N 44°18' E 008°29'0 0.0
2017-May-16 05:00N 44°18' E 008°29'1 1.4
2017-May-16 04:26N 44°19' E 008°30'1 1.7
2017-May-16 03:58N 44°18' E 008°29'0 0.0
2017-May-16 03:13N 44°18' E 008°29'0 0.0
2017-May-16 02:43N 44°18' E 008°29'0 0.0
2017-May-16 02:25N 44°18' E 008°29'0 0.0
2017-May-16 01:55N 44°18' E 008°29'0 0.0
2017-May-16 01:25N 44°18' E 008°29'0 0.0
2017-May-16 00:58N 44°18' E 008°29'0 0.0
2017-May-16 00:28N 44°18' E 008°29'0 0.0
2017-May-15 23:49N 44°18' E 008°29'0 0.0
2017-May-15 23:25N 44°18' E 008°29'0 0.0
2017-May-15 22:55N 44°18' E 008°29'0 0.0
2017-May-15 22:25N 44°18' E 008°29'0 0.0
2017-May-15 21:55N 44°18' E 008°29'0 0.0
2017-May-15 21:19N 44°18' E 008°29'0 0.0
2017-May-15 20:55N 44°18' E 008°29'0 0.0
2017-May-15 20:25N 44°18' E 008°29'0 0.0
2017-May-15 19:55N 44°18' E 008°29'0 0.0
2017-May-15 19:25N 44°18' E 008°29'0 0.0
2017-May-15 18:49N 44°18' E 008°29'0 0.0
2017-May-15 18:25N 44°18' E 008°29'0 0.0
2017-May-15 17:55N 44°18' E 008°29'0 0.0
2017-May-15 17:19N 44°18' E 008°29'0 0.0
2017-May-15 16:49N 44°18' E 008°29'0 0.0
2017-May-15 16:25N 44°18' E 008°29'0 0.0
2017-May-15 15:55N 44°18' E 008°29'0 0.0
2017-May-15 15:25N 44°18' E 008°29'0 0.0
2017-May-15 14:55N 44°18' E 008°29'0 0.0
2017-May-15 13:55N 44°18' E 008°29'0 0.0
2017-May-15 13:25N 44°18' E 008°29'0 0.0
2017-May-15 12:55N 44°18' E 008°29'0 0.0
2017-May-15 12:01N 44°18' E 008°29'0 0.0
2017-May-15 11:49N 44°18' E 008°29'0 0.0
2017-May-15 11:25N 44°18' E 008°29'0 0.0
2017-May-15 10:55N 44°18' E 008°29'0 0.0
2017-May-15 10:25N 44°18' E 008°29'0 0.0
2017-May-15 09:55N 44°18' E 008°29'0 0.0
2017-May-15 09:25N 44°18' E 008°29'0 0.0
2017-May-15 08:49N 44°18' E 008°29'0 0.0
2017-May-15 08:25N 44°18' E 008°29'0 0.0
2017-May-15 07:55N 44°18' E 008°29'0 0.0
2017-May-15 07:19N 44°18' E 008°29'0 0.0
2017-May-15 06:49N 44°18' E 008°29'0 0.0
2017-May-15 06:01N 44°18' E 008°29'0 0.0
2017-May-15 04:19N 44°18' E 008°29'0 0.0
2017-May-15 03:49N 44°18' E 008°29'0 0.0
2017-May-15 03:19N 44°18' E 008°29'0 0.0
2017-May-15 02:43N 44°18' E 008°29'0 0.0
2017-May-15 02:19N 44°18' E 008°29'0 0.0
2017-May-15 01:49N 44°18' E 008°29'0 0.0
2017-May-15 01:13N 44°18' E 008°29'0 0.0
2017-May-15 00:43N 44°18' E 008°29'0 0.0
2017-May-15 00:25N 44°18' E 008°29'0 0.0
2017-May-14 23:55N 44°18' E 008°29'0 0.0
2017-May-14 23:07N 44°18' E 008°29'0 0.0
2017-May-14 22:55N 44°18' E 008°29'0 0.0
2017-May-14 22:25N 44°18' E 008°29'0 0.0
2017-May-14 20:25N 44°18' E 008°29'0 0.0
2017-May-14 19:49N 44°18' E 008°29'0 0.0
2017-May-14 19:25N 44°18' E 008°29'0 0.0
2017-May-14 18:55N 44°18' E 008°29'0 0.0
2017-May-14 18:19N 44°18' E 008°29'0 0.0
2017-May-14 17:49N 44°18' E 008°29'0 0.0
2017-May-14 17:25N 44°18' E 008°29'0 0.0
2017-May-14 16:55N 44°18' E 008°29'0 0.0
2017-May-14 16:19N 44°18' E 008°29'0 0.0
2017-May-14 15:55N 44°18' E 008°29'0 0.0
2017-May-14 15:25N 44°18' E 008°29'0 0.0
2017-May-14 14:55N 44°18' E 008°29'0 0.0
2017-May-14 14:25N 44°18' E 008°29'0 0.0
2017-May-14 13:25N 44°18' E 008°29'0 0.0
2017-May-14 12:55N 44°18' E 008°29'0 0.0
2017-May-14 12:25N 44°18' E 008°29'0 0.0
2017-May-14 11:55N 44°18' E 008°29'0 0.0
2017-May-14 11:25N 44°18' E 008°29'0 0.0
2017-May-14 10:49N 44°18' E 008°29'0 0.0
2017-May-14 10:25N 44°18' E 008°29'  

Dump ship's entire track history